sensor_id;sensor_type;location;lat;lon;timestamp;P1;durP1;ratioP1;P2;durP2;ratioP2
40781;SDS011;26493;51.938;7.626;2023-04-03T00:02:09;16.50;;;7.90;;
40781;SDS011;26493;51.938;7.626;2023-04-03T00:04:35;15.95;;;8.50;;
40781;SDS011;26493;51.938;7.626;2023-04-03T00:07:01;18.58;;;8.45;;
40781;SDS011;26493;51.938;7.626;2023-04-03T00:09:27;15.20;;;8.00;;
40781;SDS011;26493;51.938;7.626;2023-04-03T00:11:53;17.77;;;8.63;;
40781;SDS011;26493;51.938;7.626;2023-04-03T00:14:19;20.20;;;8.88;;
40781;SDS011;26493;51.938;7.626;2023-04-03T00:16:45;15.15;;;7.97;;
40781;SDS011;26493;51.938;7.626;2023-04-03T00:19:11;15.27;;;8.20;;
40781;SDS011;26493;51.938;7.626;2023-04-03T00:21:38;17.05;;;8.48;;
40781;SDS011;26493;51.938;7.626;2023-04-03T00:24:04;14.65;;;8.20;;
40781;SDS011;26493;51.938;7.626;2023-04-03T00:26:30;14.70;;;8.10;;
40781;SDS011;26493;51.938;7.626;2023-04-03T00:28:56;16.88;;;8.27;;
40781;SDS011;26493;51.938;7.626;2023-04-03T00:31:24;15.05;;;9.00;;
40781;SDS011;26493;51.938;7.626;2023-04-03T00:33:50;15.95;;;8.15;;
40781;SDS011;26493;51.938;7.626;2023-04-03T00:36:16;14.55;;;8.60;;
40781;SDS011;26493;51.938;7.626;2023-04-03T00:38:42;15.85;;;8.32;;
40781;SDS011;26493;51.938;7.626;2023-04-03T00:41:08;17.00;;;8.68;;
40781;SDS011;26493;51.938;7.626;2023-04-03T00:43:34;15.50;;;8.55;;
40781;SDS011;26493;51.938;7.626;2023-04-03T00:46:00;15.50;;;8.60;;
40781;SDS011;26493;51.938;7.626;2023-04-03T00:51:02;16.95;;;9.05;;
40781;SDS011;26493;51.938;7.626;2023-04-03T00:53:30;16.80;;;8.38;;
40781;SDS011;26493;51.938;7.626;2023-04-03T00:55:56;16.30;;;8.40;;
40781;SDS011;26493;51.938;7.626;2023-04-03T00:58:25;14.98;;;8.23;;
40781;SDS011;26493;51.938;7.626;2023-04-03T01:00:54;15.63;;;8.68;;
40781;SDS011;26493;51.938;7.626;2023-04-03T01:03:22;15.70;;;8.20;;
40781;SDS011;26493;51.938;7.626;2023-04-03T01:05:48;16.20;;;8.35;;
40781;SDS011;26493;51.938;7.626;2023-04-03T01:08:15;14.70;;;8.13;;
40781;SDS011;26493;51.938;7.626;2023-04-03T01:10:41;14.60;;;8.32;;
40781;SDS011;26493;51.938;7.626;2023-04-03T01:13:18;15.88;;;8.48;;
40781;SDS011;26493;51.938;7.626;2023-04-03T01:15:45;16.80;;;8.73;;
40781;SDS011;26493;51.938;7.626;2023-04-03T01:18:11;16.60;;;8.52;;
40781;SDS011;26493;51.938;7.626;2023-04-03T01:20:43;15.13;;;8.68;;
40781;SDS011;26493;51.938;7.626;2023-04-03T01:25:37;20.10;;;9.00;;
40781;SDS011;26493;51.938;7.626;2023-04-03T01:28:04;16.17;;;8.40;;
40781;SDS011;26493;51.938;7.626;2023-04-03T01:30:32;15.10;;;8.38;;
40781;SDS011;26493;51.938;7.626;2023-04-03T01:32:58;16.23;;;8.55;;
40781;SDS011;26493;51.938;7.626;2023-04-03T01:35:24;16.35;;;8.60;;
40781;SDS011;26493;51.938;7.626;2023-04-03T01:37:50;15.32;;;8.40;;
40781;SDS011;26493;51.938;7.626;2023-04-03T01:40:16;15.32;;;8.15;;
40781;SDS011;26493;51.938;7.626;2023-04-03T01:42:42;16.27;;;8.18;;
40781;SDS011;26493;51.938;7.626;2023-04-03T01:45:08;15.55;;;8.38;;
40781;SDS011;26493;51.938;7.626;2023-04-03T01:47:34;15.18;;;8.70;;
40781;SDS011;26493;51.938;7.626;2023-04-03T01:50:00;17.10;;;8.55;;
40781;SDS011;26493;51.938;7.626;2023-04-03T01:52:26;16.48;;;9.43;;
40781;SDS011;26493;51.938;7.626;2023-04-03T01:54:52;16.60;;;8.20;;
40781;SDS011;26493;51.938;7.626;2023-04-03T01:57:18;16.65;;;8.80;;
40781;SDS011;26493;51.938;7.626;2023-04-03T01:59:44;15.68;;;9.10;;
40781;SDS011;26493;51.938;7.626;2023-04-03T02:02:10;16.27;;;8.93;;
40781;SDS011;26493;51.938;7.626;2023-04-03T02:04:37;14.10;;;8.15;;
40781;SDS011;26493;51.938;7.626;2023-04-03T02:07:03;19.50;;;10.07;;
40781;SDS011;26493;51.938;7.626;2023-04-03T02:09:29;14.23;;;8.50;;
40781;SDS011;26493;51.938;7.626;2023-04-03T02:11:55;16.65;;;8.88;;
40781;SDS011;26493;51.938;7.626;2023-04-03T02:14:21;16.63;;;8.43;;
40781;SDS011;26493;51.938;7.626;2023-04-03T02:16:48;15.45;;;9.00;;
40781;SDS011;26493;51.938;7.626;2023-04-03T02:19:14;17.60;;;10.02;;
40781;SDS011;26493;51.938;7.626;2023-04-03T02:21:40;15.73;;;8.88;;
40781;SDS011;26493;51.938;7.626;2023-04-03T02:24:06;16.58;;;8.70;;
40781;SDS011;26493;51.938;7.626;2023-04-03T02:26:32;16.83;;;8.45;;
40781;SDS011;26493;51.938;7.626;2023-04-03T02:28:58;19.45;;;8.98;;
40781;SDS011;26493;51.938;7.626;2023-04-03T02:31:24;15.63;;;8.38;;
40781;SDS011;26493;51.938;7.626;2023-04-03T02:33:51;14.77;;;8.27;;
40781;SDS011;26493;51.938;7.626;2023-04-03T02:36:17;16.55;;;8.82;;
40781;SDS011;26493;51.938;7.626;2023-04-03T02:38:43;15.35;;;8.75;;
40781;SDS011;26493;51.938;7.626;2023-04-03T02:41:11;15.73;;;9.05;;
40781;SDS011;26493;51.938;7.626;2023-04-03T02:43:37;15.13;;;8.68;;
40781;SDS011;26493;51.938;7.626;2023-04-03T02:46:03;18.50;;;8.90;;
40781;SDS011;26493;51.938;7.626;2023-04-03T02:48:30;15.27;;;8.80;;
40781;SDS011;26493;51.938;7.626;2023-04-03T02:50:56;15.13;;;9.23;;
40781;SDS011;26493;51.938;7.626;2023-04-03T02:53:22;15.18;;;9.07;;
40781;SDS011;26493;51.938;7.626;2023-04-03T02:55:49;17.35;;;9.13;;
40781;SDS011;26493;51.938;7.626;2023-04-03T02:58:15;15.20;;;8.98;;
40781;SDS011;26493;51.938;7.626;2023-04-03T03:00:41;17.05;;;9.85;;
40781;SDS011;26493;51.938;7.626;2023-04-03T03:03:07;16.58;;;9.88;;
40781;SDS011;26493;51.938;7.626;2023-04-03T03:05:33;15.52;;;9.18;;
40781;SDS011;26493;51.938;7.626;2023-04-03T03:07:59;14.82;;;9.40;;
40781;SDS011;26493;51.938;7.626;2023-04-03T03:10:25;14.63;;;8.65;;
40781;SDS011;26493;51.938;7.626;2023-04-03T03:12:51;16.35;;;9.20;;
40781;SDS011;26493;51.938;7.626;2023-04-03T03:15:17;18.95;;;9.27;;
40781;SDS011;26493;51.938;7.626;2023-04-03T03:17:44;16.13;;;9.32;;
40781;SDS011;26493;51.938;7.626;2023-04-03T03:20:10;15.93;;;9.65;;
40781;SDS011;26493;51.938;7.626;2023-04-03T03:22:39;15.60;;;9.40;;
40781;SDS011;26493;51.938;7.626;2023-04-03T03:25:05;15.27;;;9.50;;
40781;SDS011;26493;51.938;7.626;2023-04-03T03:27:31;17.17;;;9.85;;
40781;SDS011;26493;51.938;7.626;2023-04-03T03:29:57;15.40;;;9.40;;
40781;SDS011;26493;51.938;7.626;2023-04-03T03:32:23;17.60;;;9.77;;
40781;SDS011;26493;51.938;7.626;2023-04-03T03:34:49;15.30;;;9.60;;
40781;SDS011;26493;51.938;7.626;2023-04-03T03:37:15;18.30;;;9.55;;
40781;SDS011;26493;51.938;7.626;2023-04-03T03:39:41;16.30;;;9.68;;
40781;SDS011;26493;51.938;7.626;2023-04-03T03:42:07;15.43;;;9.38;;
40781;SDS011;26493;51.938;7.626;2023-04-03T03:44:33;15.88;;;9.02;;
40781;SDS011;26493;51.938;7.626;2023-04-03T03:46:59;15.57;;;9.50;;
40781;SDS011;26493;51.938;7.626;2023-04-03T03:49:25;16.45;;;10.15;;
40781;SDS011;26493;51.938;7.626;2023-04-03T03:51:51;17.27;;;10.02;;
40781;SDS011;26493;51.938;7.626;2023-04-03T03:54:17;17.20;;;10.38;;
40781;SDS011;26493;51.938;7.626;2023-04-03T03:56:43;16.23;;;9.77;;
40781;SDS011;26493;51.938;7.626;2023-04-03T03:59:11;16.73;;;9.75;;
40781;SDS011;26493;51.938;7.626;2023-04-03T04:01:37;17.40;;;9.98;;
40781;SDS011;26493;51.938;7.626;2023-04-03T04:04:03;15.60;;;9.80;;
40781;SDS011;26493;51.938;7.626;2023-04-03T04:06:29;17.58;;;10.30;;
40781;SDS011;26493;51.938;7.626;2023-04-03T04:08:55;17.20;;;10.52;;
40781;SDS011;26493;51.938;7.626;2023-04-03T04:11:21;18.98;;;10.65;;
40781;SDS011;26493;51.938;7.626;2023-04-03T04:13:47;16.05;;;10.82;;
40781;SDS011;26493;51.938;7.626;2023-04-03T04:16:13;18.00;;;11.23;;
40781;SDS011;26493;51.938;7.626;2023-04-03T04:18:39;17.08;;;10.77;;
40781;SDS011;26493;51.938;7.626;2023-04-03T04:21:05;20.88;;;12.10;;
40781;SDS011;26493;51.938;7.626;2023-04-03T04:23:31;17.00;;;10.48;;
40781;SDS011;26493;51.938;7.626;2023-04-03T04:25:57;18.65;;;11.68;;
40781;SDS011;26493;51.938;7.626;2023-04-03T04:28:23;15.55;;;10.55;;
40781;SDS011;26493;51.938;7.626;2023-04-03T04:30:49;20.23;;;11.07;;
40781;SDS011;26493;51.938;7.626;2023-04-03T04:33:15;18.17;;;11.27;;
40781;SDS011;26493;51.938;7.626;2023-04-03T04:35:42;18.20;;;11.40;;
40781;SDS011;26493;51.938;7.626;2023-04-03T04:38:08;18.33;;;11.85;;
40781;SDS011;26493;51.938;7.626;2023-04-03T04:40:34;18.52;;;11.38;;
40781;SDS011;26493;51.938;7.626;2023-04-03T04:43:02;19.38;;;10.75;;
40781;SDS011;26493;51.938;7.626;2023-04-03T04:45:28;18.08;;;11.07;;
40781;SDS011;26493;51.938;7.626;2023-04-03T04:47:55;21.23;;;12.32;;
40781;SDS011;26493;51.938;7.626;2023-04-03T04:50:21;18.77;;;10.90;;
40781;SDS011;26493;51.938;7.626;2023-04-03T04:52:48;17.42;;;11.43;;
40781;SDS011;26493;51.938;7.626;2023-04-03T04:55:14;17.63;;;10.55;;
40781;SDS011;26493;51.938;7.626;2023-04-03T04:57:40;16.88;;;10.50;;
40781;SDS011;26493;51.938;7.626;2023-04-03T05:00:06;18.75;;;10.68;;
40781;SDS011;26493;51.938;7.626;2023-04-03T05:02:32;19.23;;;10.73;;
40781;SDS011;26493;51.938;7.626;2023-04-03T05:04:58;20.40;;;11.90;;
40781;SDS011;26493;51.938;7.626;2023-04-03T05:07:24;18.58;;;11.40;;
40781;SDS011;26493;51.938;7.626;2023-04-03T05:09:50;22.42;;;10.90;;
40781;SDS011;26493;51.938;7.626;2023-04-03T05:12:16;17.48;;;10.70;;
40781;SDS011;26493;51.938;7.626;2023-04-03T05:14:42;16.45;;;10.70;;
40781;SDS011;26493;51.938;7.626;2023-04-03T05:17:08;19.48;;;10.82;;
40781;SDS011;26493;51.938;7.626;2023-04-03T05:19:34;17.38;;;11.13;;
40781;SDS011;26493;51.938;7.626;2023-04-03T05:22:00;17.52;;;10.65;;
40781;SDS011;26493;51.938;7.626;2023-04-03T05:24:27;18.90;;;10.63;;
40781;SDS011;26493;51.938;7.626;2023-04-03T05:26:53;20.15;;;11.98;;
40781;SDS011;26493;51.938;7.626;2023-04-03T05:29:19;16.23;;;10.55;;
40781;SDS011;26493;51.938;7.626;2023-04-03T05:31:45;17.63;;;10.90;;
40781;SDS011;26493;51.938;7.626;2023-04-03T05:34:11;17.15;;;11.73;;
40781;SDS011;26493;51.938;7.626;2023-04-03T05:36:37;18.17;;;11.07;;
40781;SDS011;26493;51.938;7.626;2023-04-03T05:39:03;17.17;;;10.90;;
40781;SDS011;26493;51.938;7.626;2023-04-03T05:41:29;16.38;;;11.10;;
40781;SDS011;26493;51.938;7.626;2023-04-03T05:43:55;17.95;;;10.38;;
40781;SDS011;26493;51.938;7.626;2023-04-03T05:46:21;16.58;;;10.50;;
40781;SDS011;26493;51.938;7.626;2023-04-03T05:48:47;17.35;;;11.00;;
40781;SDS011;26493;51.938;7.626;2023-04-03T05:51:18;19.98;;;10.82;;
40781;SDS011;26493;51.938;7.626;2023-04-03T05:53:44;19.80;;;11.20;;
40781;SDS011;26493;51.938;7.626;2023-04-03T05:56:11;17.75;;;10.50;;
40781;SDS011;26493;51.938;7.626;2023-04-03T05:58:37;18.58;;;10.73;;
40781;SDS011;26493;51.938;7.626;2023-04-03T06:01:03;17.30;;;10.60;;
40781;SDS011;26493;51.938;7.626;2023-04-03T06:03:30;18.63;;;10.30;;
40781;SDS011;26493;51.938;7.626;2023-04-03T06:05:56;17.42;;;10.52;;
40781;SDS011;26493;51.938;7.626;2023-04-03T06:08:22;15.68;;;10.55;;
40781;SDS011;26493;51.938;7.626;2023-04-03T06:10:49;15.57;;;10.73;;
40781;SDS011;26493;51.938;7.626;2023-04-03T06:13:16;17.90;;;11.43;;
40781;SDS011;26493;51.938;7.626;2023-04-03T06:15:42;20.08;;;10.90;;
40781;SDS011;26493;51.938;7.626;2023-04-03T06:18:08;17.10;;;10.77;;
40781;SDS011;26493;51.938;7.626;2023-04-03T06:20:34;16.60;;;10.50;;
40781;SDS011;26493;51.938;7.626;2023-04-03T06:23:00;18.38;;;11.13;;
40781;SDS011;26493;51.938;7.626;2023-04-03T06:25:27;16.95;;;10.40;;
40781;SDS011;26493;51.938;7.626;2023-04-03T06:27:53;20.13;;;11.82;;
40781;SDS011;26493;51.938;7.626;2023-04-03T06:30:20;21.58;;;12.20;;
40781;SDS011;26493;51.938;7.626;2023-04-03T06:32:47;17.58;;;10.80;;
40781;SDS011;26493;51.938;7.626;2023-04-03T06:35:13;17.13;;;11.27;;
40781;SDS011;26493;51.938;7.626;2023-04-03T06:37:39;16.95;;;11.70;;
40781;SDS011;26493;51.938;7.626;2023-04-03T06:40:06;20.67;;;11.10;;
40781;SDS011;26493;51.938;7.626;2023-04-03T06:42:32;19.23;;;10.93;;
40781;SDS011;26493;51.938;7.626;2023-04-03T06:44:58;17.40;;;10.55;;
40781;SDS011;26493;51.938;7.626;2023-04-03T06:47:25;17.75;;;10.68;;
40781;SDS011;26493;51.938;7.626;2023-04-03T06:49:51;19.17;;;10.38;;
40781;SDS011;26493;51.938;7.626;2023-04-03T06:52:17;18.35;;;11.50;;
40781;SDS011;26493;51.938;7.626;2023-04-03T06:54:43;16.88;;;10.20;;
40781;SDS011;26493;51.938;7.626;2023-04-03T06:57:09;16.13;;;9.93;;
40781;SDS011;26493;51.938;7.626;2023-04-03T06:59:35;18.63;;;10.25;;
40781;SDS011;26493;51.938;7.626;2023-04-03T07:02:02;17.23;;;10.23;;
40781;SDS011;26493;51.938;7.626;2023-04-03T07:04:28;17.33;;;10.02;;
40781;SDS011;26493;51.938;7.626;2023-04-03T07:06:54;16.20;;;10.32;;
40781;SDS011;26493;51.938;7.626;2023-04-03T07:09:20;15.40;;;9.82;;
40781;SDS011;26493;51.938;7.626;2023-04-03T07:11:46;16.95;;;9.98;;
40781;SDS011;26493;51.938;7.626;2023-04-03T07:14:12;18.08;;;10.32;;
40781;SDS011;26493;51.938;7.626;2023-04-03T07:16:38;16.23;;;9.75;;
40781;SDS011;26493;51.938;7.626;2023-04-03T07:19:04;18.67;;;10.73;;
40781;SDS011;26493;51.938;7.626;2023-04-03T07:21:30;18.25;;;10.30;;
40781;SDS011;26493;51.938;7.626;2023-04-03T07:23:56;16.95;;;10.63;;
40781;SDS011;26493;51.938;7.626;2023-04-03T07:26:23;16.83;;;10.73;;
40781;SDS011;26493;51.938;7.626;2023-04-03T07:28:49;16.13;;;10.70;;
40781;SDS011;26493;51.938;7.626;2023-04-03T07:31:15;17.25;;;10.40;;
40781;SDS011;26493;51.938;7.626;2023-04-03T07:33:42;30.42;;;11.43;;
40781;SDS011;26493;51.938;7.626;2023-04-03T07:36:09;17.60;;;10.70;;
40781;SDS011;26493;51.938;7.626;2023-04-03T07:38:36;16.67;;;10.65;;
40781;SDS011;26493;51.938;7.626;2023-04-03T07:41:02;17.52;;;10.57;;
40781;SDS011;26493;51.938;7.626;2023-04-03T07:43:28;17.40;;;10.68;;
40781;SDS011;26493;51.938;7.626;2023-04-03T07:45:54;19.27;;;10.27;;
40781;SDS011;26493;51.938;7.626;2023-04-03T07:48:22;15.45;;;10.10;;
40781;SDS011;26493;51.938;7.626;2023-04-03T07:50:48;17.73;;;11.20;;
40781;SDS011;26493;51.938;7.626;2023-04-03T07:53:14;16.73;;;10.55;;
40781;SDS011;26493;51.938;7.626;2023-04-03T07:55:41;18.00;;;10.70;;
40781;SDS011;26493;51.938;7.626;2023-04-03T07:58:10;17.45;;;10.40;;
40781;SDS011;26493;51.938;7.626;2023-04-03T08:00:37;17.52;;;10.57;;
40781;SDS011;26493;51.938;7.626;2023-04-03T08:03:03;18.20;;;10.55;;
40781;SDS011;26493;51.938;7.626;2023-04-03T08:05:29;17.20;;;10.73;;
40781;SDS011;26493;51.938;7.626;2023-04-03T08:07:57;16.23;;;10.43;;
40781;SDS011;26493;51.938;7.626;2023-04-03T08:10:25;17.02;;;10.07;;
40781;SDS011;26493;51.938;7.626;2023-04-03T08:13:12;19.77;;;10.40;;
40781;SDS011;26493;51.938;7.626;2023-04-03T08:15:38;16.75;;;10.70;;
40781;SDS011;26493;51.938;7.626;2023-04-03T08:18:04;19.73;;;10.63;;
40781;SDS011;26493;51.938;7.626;2023-04-03T08:20:32;16.67;;;10.10;;
40781;SDS011;26493;51.938;7.626;2023-04-03T08:22:58;18.27;;;10.82;;
40781;SDS011;26493;51.938;7.626;2023-04-03T08:25:24;15.52;;;10.55;;
40781;SDS011;26493;51.938;7.626;2023-04-03T08:27:50;18.90;;;11.18;;
40781;SDS011;26493;51.938;7.626;2023-04-03T08:30:17;17.83;;;10.80;;
40781;SDS011;26493;51.938;7.626;2023-04-03T08:32:43;14.98;;;9.90;;
40781;SDS011;26493;51.938;7.626;2023-04-03T08:35:10;16.65;;;10.65;;
40781;SDS011;26493;51.938;7.626;2023-04-03T08:37:36;17.05;;;10.70;;
40781;SDS011;26493;51.938;7.626;2023-04-03T08:40:05;16.63;;;11.30;;
40781;SDS011;26493;51.938;7.626;2023-04-03T08:45:15;17.98;;;11.52;;
40781;SDS011;26493;51.938;7.626;2023-04-03T08:50:18;19.52;;;10.63;;
40781;SDS011;26493;51.938;7.626;2023-04-03T08:52:50;18.42;;;11.10;;
40781;SDS011;26493;51.938;7.626;2023-04-03T08:57:49;16.25;;;11.20;;
40781;SDS011;26493;51.938;7.626;2023-04-03T09:00:20;19.33;;;12.65;;
40781;SDS011;26493;51.938;7.626;2023-04-03T09:02:52;17.35;;;10.90;;
40781;SDS011;26493;51.938;7.626;2023-04-03T09:05:31;16.00;;;10.63;;
40781;SDS011;26493;51.938;7.626;2023-04-03T09:08:05;16.95;;;10.70;;
40781;SDS011;26493;51.938;7.626;2023-04-03T09:10:33;16.58;;;11.02;;
40781;SDS011;26493;51.938;7.626;2023-04-03T09:15:47;16.48;;;11.15;;
40781;SDS011;26493;51.938;7.626;2023-04-03T09:18:15;17.52;;;10.82;;
40781;SDS011;26493;51.938;7.626;2023-04-03T09:23:48;16.80;;;11.43;;
40781;SDS011;26493;51.938;7.626;2023-04-03T09:26:13;16.67;;;10.73;;
40781;SDS011;26493;51.938;7.626;2023-04-03T09:28:40;15.52;;;10.65;;
40781;SDS011;26493;51.938;7.626;2023-04-03T09:33:45;15.63;;;11.20;;
40781;SDS011;26493;51.938;7.626;2023-04-03T09:36:12;16.55;;;11.57;;
40781;SDS011;26493;51.938;7.626;2023-04-03T09:38:38;15.80;;;11.40;;
40781;SDS011;26493;51.938;7.626;2023-04-03T09:41:05;16.60;;;11.27;;
40781;SDS011;26493;51.938;7.626;2023-04-03T09:43:33;16.63;;;11.13;;
40781;SDS011;26493;51.938;7.626;2023-04-03T09:48:49;18.02;;;11.32;;
40781;SDS011;26493;51.938;7.626;2023-04-03T09:51:16;15.82;;;11.05;;
40781;SDS011;26493;51.938;7.626;2023-04-03T09:53:42;17.00;;;11.35;;
40781;SDS011;26493;51.938;7.626;2023-04-03T09:58:47;16.30;;;11.18;;
40781;SDS011;26493;51.938;7.626;2023-04-03T10:03:46;16.45;;;10.70;;
40781;SDS011;26493;51.938;7.626;2023-04-03T10:06:29;17.67;;;10.70;;
40781;SDS011;26493;51.938;7.626;2023-04-03T10:08:59;16.42;;;11.20;;
40781;SDS011;26493;51.938;7.626;2023-04-03T10:11:26;16.25;;;11.40;;
40781;SDS011;26493;51.938;7.626;2023-04-03T10:13:53;15.32;;;10.55;;
40781;SDS011;26493;51.938;7.626;2023-04-03T10:16:23;16.17;;;11.32;;
40781;SDS011;26493;51.938;7.626;2023-04-03T10:21:20;16.05;;;10.85;;
40781;SDS011;26493;51.938;7.626;2023-04-03T10:23:59;15.75;;;10.50;;
40781;SDS011;26493;51.938;7.626;2023-04-03T10:28:57;15.57;;;10.75;;
40781;SDS011;26493;51.938;7.626;2023-04-03T10:36:36;16.70;;;11.57;;
40781;SDS011;26493;51.938;7.626;2023-04-03T10:51:31;17.08;;;10.25;;
40781;SDS011;26493;51.938;7.626;2023-04-03T10:56:40;16.65;;;10.88;;
40781;SDS011;26493;51.938;7.626;2023-04-03T10:59:18;16.83;;;10.75;;
40781;SDS011;26493;51.938;7.626;2023-04-03T11:01:51;18.23;;;11.85;;
40781;SDS011;26493;51.938;7.626;2023-04-03T11:04:18;15.90;;;11.27;;
40781;SDS011;26493;51.938;7.626;2023-04-03T11:06:53;22.52;;;11.30;;
40781;SDS011;26493;51.938;7.626;2023-04-03T11:09:24;17.45;;;10.90;;
40781;SDS011;26493;51.938;7.626;2023-04-03T11:11:53;18.77;;;11.23;;
40781;SDS011;26493;51.938;7.626;2023-04-03T11:14:26;18.38;;;11.45;;
40781;SDS011;26493;51.938;7.626;2023-04-03T11:16:59;15.23;;;10.73;;
40781;SDS011;26493;51.938;7.626;2023-04-03T11:19:34;17.45;;;10.80;;
40781;SDS011;26493;51.938;7.626;2023-04-03T11:24:32;15.82;;;11.05;;
40781;SDS011;26493;51.938;7.626;2023-04-03T11:26:59;16.63;;;11.43;;
40781;SDS011;26493;51.938;7.626;2023-04-03T11:29:31;16.13;;;11.63;;
40781;SDS011;26493;51.938;7.626;2023-04-03T11:34:34;16.33;;;11.45;;
40781;SDS011;26493;51.938;7.626;2023-04-03T11:37:04;15.32;;;11.40;;
40781;SDS011;26493;51.938;7.626;2023-04-03T11:44:40;16.73;;;12.50;;
40781;SDS011;26493;51.938;7.626;2023-04-03T11:47:10;16.85;;;12.15;;
40781;SDS011;26493;51.938;7.626;2023-04-03T12:03:01;17.75;;;12.48;;
40781;SDS011;26493;51.938;7.626;2023-04-03T12:05:28;15.98;;;11.45;;
40781;SDS011;26493;51.938;7.626;2023-04-03T12:10:40;16.00;;;11.85;;
40781;SDS011;26493;51.938;7.626;2023-04-03T12:13:12;19.00;;;11.73;;
40781;SDS011;26493;51.938;7.626;2023-04-03T12:23:33;17.33;;;13.07;;
40781;SDS011;26493;51.938;7.626;2023-04-03T12:26:21;18.90;;;12.80;;
40781;SDS011;26493;51.938;7.626;2023-04-03T12:28:50;17.08;;;12.90;;
40781;SDS011;26493;51.938;7.626;2023-04-03T12:31:17;17.40;;;13.48;;
40781;SDS011;26493;51.938;7.626;2023-04-03T12:33:59;17.60;;;12.85;;
40781;SDS011;26493;51.938;7.626;2023-04-03T12:46:43;17.38;;;11.90;;
40781;SDS011;26493;51.938;7.626;2023-04-03T12:49:43;18.70;;;12.00;;
40781;SDS011;26493;51.938;7.626;2023-04-03T12:52:19;15.65;;;11.50;;
40781;SDS011;26493;51.938;7.626;2023-04-03T12:54:46;17.88;;;11.63;;
40781;SDS011;26493;51.938;7.626;2023-04-03T12:57:26;16.38;;;11.63;;
40781;SDS011;26493;51.938;7.626;2023-04-03T12:59:52;17.90;;;12.45;;
40781;SDS011;26493;51.938;7.626;2023-04-03T13:04:51;16.20;;;12.35;;
40781;SDS011;26493;51.938;7.626;2023-04-03T13:07:19;19.00;;;12.60;;
40781;SDS011;26493;51.938;7.626;2023-04-03T13:09:47;17.67;;;12.93;;
40781;SDS011;26493;51.938;7.626;2023-04-03T13:12:20;18.05;;;12.75;;
40781;SDS011;26493;51.938;7.626;2023-04-03T13:14:57;16.35;;;12.10;;
40781;SDS011;26493;51.938;7.626;2023-04-03T13:17:23;16.42;;;12.88;;
40781;SDS011;26493;51.938;7.626;2023-04-03T13:19:50;19.40;;;12.43;;
40781;SDS011;26493;51.938;7.626;2023-04-03T13:24:49;16.10;;;12.68;;
40781;SDS011;26493;51.938;7.626;2023-04-03T13:27:16;17.40;;;12.63;;
40781;SDS011;26493;51.938;7.626;2023-04-03T13:29:42;16.48;;;12.43;;
40781;SDS011;26493;51.938;7.626;2023-04-03T13:32:14;17.15;;;12.98;;
40781;SDS011;26493;51.938;7.626;2023-04-03T13:34:43;15.95;;;12.15;;
40781;SDS011;26493;51.938;7.626;2023-04-03T13:37:23;17.95;;;12.80;;
40781;SDS011;26493;51.938;7.626;2023-04-03T13:40:11;18.80;;;12.95;;
40781;SDS011;26493;51.938;7.626;2023-04-03T13:42:37;17.15;;;12.80;;
40781;SDS011;26493;51.938;7.626;2023-04-03T13:47:41;17.67;;;12.10;;
40781;SDS011;26493;51.938;7.626;2023-04-03T13:52:50;17.45;;;12.82;;
40781;SDS011;26493;51.938;7.626;2023-04-03T14:00:28;17.65;;;12.65;;
40781;SDS011;26493;51.938;7.626;2023-04-03T14:02:55;19.25;;;12.90;;
40781;SDS011;26493;51.938;7.626;2023-04-03T14:05:22;18.98;;;12.98;;
40781;SDS011;26493;51.938;7.626;2023-04-03T14:07:49;17.63;;;13.20;;
40781;SDS011;26493;51.938;7.626;2023-04-03T14:10:16;15.85;;;12.98;;
40781;SDS011;26493;51.938;7.626;2023-04-03T14:12:42;17.15;;;12.52;;
40781;SDS011;26493;51.938;7.626;2023-04-03T14:17:43;17.23;;;13.50;;
40781;SDS011;26493;51.938;7.626;2023-04-03T14:20:13;18.42;;;13.30;;
40781;SDS011;26493;51.938;7.626;2023-04-03T14:22:40;18.60;;;13.05;;
40781;SDS011;26493;51.938;7.626;2023-04-03T14:25:06;18.30;;;13.32;;
40781;SDS011;26493;51.938;7.626;2023-04-03T14:27:36;16.50;;;12.70;;
40781;SDS011;26493;51.938;7.626;2023-04-03T14:30:03;19.67;;;13.25;;
40781;SDS011;26493;51.938;7.626;2023-04-03T14:32:29;16.55;;;12.95;;
40781;SDS011;26493;51.938;7.626;2023-04-03T14:34:55;16.92;;;12.50;;
40781;SDS011;26493;51.938;7.626;2023-04-03T14:37:24;17.98;;;12.93;;
40781;SDS011;26493;51.938;7.626;2023-04-03T14:39:51;17.60;;;12.82;;
40781;SDS011;26493;51.938;7.626;2023-04-03T14:42:31;17.67;;;13.00;;
40781;SDS011;26493;51.938;7.626;2023-04-03T14:44:58;17.20;;;12.90;;
40781;SDS011;26493;51.938;7.626;2023-04-03T14:47:25;17.58;;;13.65;;
40781;SDS011;26493;51.938;7.626;2023-04-03T14:49:52;16.27;;;12.70;;
40781;SDS011;26493;51.938;7.626;2023-04-03T14:54:46;16.33;;;12.10;;
40781;SDS011;26493;51.938;7.626;2023-04-03T14:57:13;18.88;;;13.45;;
40781;SDS011;26493;51.938;7.626;2023-04-03T14:59:39;18.27;;;13.15;;
40781;SDS011;26493;51.938;7.626;2023-04-03T15:02:20;16.98;;;12.07;;
40781;SDS011;26493;51.938;7.626;2023-04-03T15:04:48;15.35;;;12.20;;
40781;SDS011;26493;51.938;7.626;2023-04-03T15:07:14;16.60;;;11.82;;
40781;SDS011;26493;51.938;7.626;2023-04-03T15:09:40;16.50;;;11.52;;
40781;SDS011;26493;51.938;7.626;2023-04-03T15:12:07;18.63;;;12.48;;
40781;SDS011;26493;51.938;7.626;2023-04-03T15:14:33;17.90;;;13.00;;
40781;SDS011;26493;51.938;7.626;2023-04-03T15:16:59;16.88;;;12.30;;
40781;SDS011;26493;51.938;7.626;2023-04-03T15:19:26;16.10;;;11.90;;
40781;SDS011;26493;51.938;7.626;2023-04-03T15:21:52;16.00;;;12.15;;
40781;SDS011;26493;51.938;7.626;2023-04-03T15:24:18;18.90;;;12.52;;
40781;SDS011;26493;51.938;7.626;2023-04-03T15:26:43;16.17;;;11.90;;
40781;SDS011;26493;51.938;7.626;2023-04-03T15:29:10;17.90;;;12.63;;
40781;SDS011;26493;51.938;7.626;2023-04-03T15:31:36;17.15;;;11.75;;
40781;SDS011;26493;51.938;7.626;2023-04-03T15:34:02;17.52;;;12.45;;
40781;SDS011;26493;51.938;7.626;2023-04-03T15:36:28;17.33;;;12.05;;
40781;SDS011;26493;51.938;7.626;2023-04-03T15:38:54;15.90;;;12.05;;
40781;SDS011;26493;51.938;7.626;2023-04-03T15:41:20;16.00;;;12.20;;
40781;SDS011;26493;51.938;7.626;2023-04-03T15:43:46;17.27;;;12.00;;
40781;SDS011;26493;51.938;7.626;2023-04-03T15:46:12;16.92;;;12.68;;
40781;SDS011;26493;51.938;7.626;2023-04-03T15:48:39;17.25;;;12.02;;
40781;SDS011;26493;51.938;7.626;2023-04-03T15:51:05;16.48;;;11.98;;
40781;SDS011;26493;51.938;7.626;2023-04-03T15:53:31;19.08;;;12.70;;
40781;SDS011;26493;51.938;7.626;2023-04-03T15:55:57;17.52;;;12.18;;
40781;SDS011;26493;51.938;7.626;2023-04-03T15:58:23;17.05;;;12.52;;
40781;SDS011;26493;51.938;7.626;2023-04-03T16:00:50;18.88;;;12.43;;
40781;SDS011;26493;51.938;7.626;2023-04-03T16:03:17;16.15;;;11.75;;
40781;SDS011;26493;51.938;7.626;2023-04-03T16:05:43;15.85;;;11.80;;
40781;SDS011;26493;51.938;7.626;2023-04-03T16:08:10;16.75;;;12.32;;
40781;SDS011;26493;51.938;7.626;2023-04-03T16:10:36;16.23;;;11.43;;
40781;SDS011;26493;51.938;7.626;2023-04-03T16:13:03;17.73;;;12.27;;
40781;SDS011;26493;51.938;7.626;2023-04-03T16:15:29;17.02;;;12.40;;
40781;SDS011;26493;51.938;7.626;2023-04-03T16:17:56;15.48;;;11.57;;
40781;SDS011;26493;51.938;7.626;2023-04-03T16:20:23;16.20;;;12.35;;
40781;SDS011;26493;51.938;7.626;2023-04-03T16:22:49;16.63;;;11.75;;
40781;SDS011;26493;51.938;7.626;2023-04-03T16:25:15;15.48;;;11.48;;
40781;SDS011;26493;51.938;7.626;2023-04-03T16:27:41;18.25;;;12.40;;